ARCT2: Red River, ARthur City

Data processed at Sun Aug 09 2020 23:31


All information presented herein is the property of the government of the United States of America and may be revised or deleted at any time without prior notice.
Dissemination of this information without the expressed written consent of the Public Affairs Office, Tulsa District U.S. Army Corps of Engineers is strictly prohibited.
These data are gathered electronically and, as presented, have not undergone any form of quality control. These data are not guaranteed to be valid or correct.
Go to home page.
Go to station list.
Go to home page.

Upstream stations:

Downstream station:
Previous Day
Next Day
Current Day
    
SHEF ID:       ARCT2     Red River at Arthur City, TX
STATION TYPE:  
Regulating: Stage =    27.00, Flow =    85822

               PRECIP     STAGE  STAGE(2)  RIV-FLOW  BAT-LOAD
                   in        ft        ft       cfs      volt
              Ccp-Rev   Ccp-Rev   Ccp-Rev   Ccp-Rev   Ccp-Rev
(US/Central)
08/09 00:00      0.00      7.87      ----      5352     12.65
08/09 01:00      0.00      7.76      ----      5158     12.65
08/09 02:00      0.00      7.64      ----      4952     12.57
08/09 03:00      0.00      7.54      ----      4783     12.57
08/09 04:00      0.00      7.46      ----      4650     12.57
08/09 05:00      0.00      7.40      ----      4552     12.57
08/09 06:00      0.00      7.37      ----      4503     12.57
08/09 07:00      0.00      7.37      ----      4503     12.57
08/09 08:00      0.00      7.42      ----      4584     12.65
08/09 09:00      0.00      7.48      ----      4683     12.97
08/09 10:00      0.00      7.59      ----      4867     13.37
08/09 11:00      0.00      7.71      ----      5072     13.92
08/09 12:00      0.00      7.82      ----      5263     13.53
08/09 13:00      0.00      7.96      ----      5513     13.37
08/09 14:00      0.00      8.05      ----      5676     13.37
08/09 15:00      0.00      8.11      ----      5786     13.29
08/09 16:00      0.00      8.16      ----      5879     13.44
08/09 17:00      0.00      8.19      ----      5935     13.29
08/09 18:00      0.00      8.14      ----      5842     13.29
08/09 19:00      0.00      8.14      ----      5842     12.89
08/09 20:00      0.00      8.09      ----      5749     12.81
08/09 21:00      0.00      8.02      ----      5621     12.65
08/09 22:00      0.00      7.91      ----      5423     12.65
08/09 23:00      ----      ----      ----      ----      ----